Holts Summit, Missouri
Current Conditions -  °F | °C
As of 9:53 PM on Saturday 24 Jan 2015 (Local Time) from KJEF Reporting Station
Clear Clear  
Wind Chill: 52°   Ceiling: Unl
Heat Index: 52°   Visibility: 10mi
Dew Point: 33°   Wind: 8mph
Humidity: 49%   Direction: 220°SW
Pressure: 29.71"   Gusts: NA
Location:  38.64°N, 92.12°W
Report Text: KJEF 250353Z AUTO 22007KT 10SM CLR 11/01 A2971 RMK AO2 SLP054 T01110006
Loading
Personal Weather Stations






























Interactive Weather Map New forecast layout! Learn more

10-Day Weather Forecast

Advertisements
Track Severe Weather on mobile